Terminal Aerodrome Forecast
Issued by NWS North Platte, NE

Home | Current Version | Previous Version | Graphics & Text | Print | Product List | Glossary On
Versions: 1 2 3 4 5 6 7 8 9 10 11 12 13 14
000
FTUS43 KLBF 181100
TAFVTN
TAF
KVTN 181136Z 1812/1912 VRB05KT P6SM SCT250
     FM181700 18014G22KT P6SM SCT250
     FM190000 17012KT P6SM SCT250=

USA.gov is the U.S. government's official web portal to all federal, state and local government web resources and services.